createdAt,value
2023-03-15T00:00:13.596Z,100866.78
2023-03-15T00:02:43.928Z,100877.03
2023-03-15T00:05:16.792Z,100874.19
2023-03-15T00:07:46.976Z,100882.94
2023-03-15T00:10:16.838Z,100890.91
2023-03-15T00:12:46.963Z,100883.66
2023-03-15T00:15:16.912Z,100877.03
2023-03-15T00:17:47.224Z,100881.69
2023-03-15T00:20:17.428Z,100875.59
2023-03-15T00:22:47.650Z,100885.19
2023-03-15T00:25:18.526Z,100891.88
2023-03-15T00:27:48.827Z,100895.09
2023-03-15T00:30:18.992Z,100894.41
2023-03-15T00:32:49.333Z,100886.72
2023-03-15T00:35:19.686Z,100891.81
2023-03-15T00:37:50.092Z,100895.97
2023-03-15T00:40:19.936Z,100900.22
2023-03-15T00:42:52.748Z,100901.13
2023-03-15T00:45:23.661Z,100898.41
2023-03-15T00:47:55.714Z,100905.06
2023-03-15T00:50:26.696Z,100907.16
2023-03-15T00:52:58.660Z,100905.44
2023-03-15T00:55:30.769Z,100907.66
2023-03-15T00:58:00.947Z,100900.53
2023-03-15T01:00:31.076Z,100900.72
2023-03-15T01:03:01.924Z,100905.63
2023-03-15T01:05:32.488Z,100905.47
2023-03-15T01:08:04.272Z,100909.28
2023-03-15T01:10:37.091Z,100907.41
2023-03-15T01:13:08.329Z,100918.91
2023-03-15T01:15:38.243Z,100921.66
2023-03-15T01:18:08.460Z,100918.19
2023-03-15T01:20:38.306Z,100917.09
2023-03-15T01:23:08.676Z,100920.59
2023-03-15T01:25:38.262Z,100919.06
2023-03-15T01:28:08.390Z,100920.53
2023-03-15T01:30:38.662Z,100922.69
2023-03-15T01:33:08.413Z,100917.00
2023-03-15T01:35:38.960Z,100921.34
2023-03-15T01:38:09.456Z,100922.41
2023-03-15T01:40:44.840Z,100916.56
2023-03-15T01:43:17.832Z,100922.16
2023-03-15T01:46:03.590Z,100925.84
2023-03-15T01:48:41.151Z,100923.00
2023-03-15T01:51:26.353Z,100925.00
2023-03-15T01:53:59.209Z,100924.31
2023-03-15T01:56:32.876Z,100931.25
2023-03-15T01:59:06.407Z,100931.56
2023-03-15T02:01:38.867Z,100929.16
2023-03-15T02:04:12.652Z,100937.03
2023-03-15T02:06:47.802Z,100930.09
2023-03-15T02:09:20.469Z,100935.84
2023-03-15T02:11:50.856Z,100928.28
2023-03-15T02:14:21.144Z,100938.88
2023-03-15T02:16:54.546Z,100934.13
2023-03-15T02:19:41.918Z,100931.91
2023-03-15T02:22:46.258Z,100939.44
2023-03-15T02:25:23.914Z,100941.69
2023-03-15T02:27:54.273Z,100942.00
2023-03-15T02:30:24.402Z,100943.03
2023-03-15T02:32:54.940Z,100949.94
2023-03-15T02:35:34.085Z,100948.13
2023-03-15T02:38:04.373Z,100948.50
2023-03-15T02:40:34.337Z,100944.25
2023-03-15T02:43:08.983Z,100945.69
2023-03-15T02:45:39.973Z,100951.03
2023-03-15T02:48:13.015Z,100944.16
2023-03-15T02:50:43.434Z,100943.84
2023-03-15T02:53:13.530Z,100950.97
2023-03-15T02:55:43.752Z,100942.72
2023-03-15T02:58:13.600Z,100948.16
2023-03-15T03:00:44.600Z,100951.03
2023-03-15T03:03:14.430Z,100935.94
2023-03-15T03:05:44.656Z,100930.47
2023-03-15T03:08:17.624Z,100941.47
2023-03-15T03:10:47.795Z,100943.44
2023-03-15T03:13:18.286Z,100934.44
2023-03-15T03:15:59.562Z,100941.84
2023-03-15T03:18:36.981Z,100940.75
2023-03-15T03:21:09.320Z,100950.94
2023-03-15T03:23:39.434Z,100941.59
2023-03-15T03:26:18.885Z,100940.75
2023-03-15T03:28:51.381Z,100956.22
2023-03-15T03:31:25.422Z,100950.06
2023-03-15T03:33:58.105Z,100954.03
2023-03-15T03:36:30.556Z,100947.41
2023-03-15T03:39:00.590Z,100943.50
2023-03-15T03:41:30.939Z,100941.41
2023-03-15T03:44:01.094Z,100942.91
2023-03-15T03:46:32.074Z,100954.03
2023-03-15T03:49:02.132Z,100948.16
2023-03-15T03:51:35.121Z,100943.56
2023-03-15T03:54:05.813Z,100946.00
2023-03-15T03:56:36.839Z,100941.63
2023-03-15T03:59:06.772Z,100951.25
2023-03-15T04:01:50.223Z,100939.06
2023-03-15T04:04:20.194Z,100940.00
2023-03-15T04:06:51.894Z,100939.13
2023-03-15T04:09:26.862Z,100935.22
2023-03-15T04:11:56.988Z,100932.22
2023-03-15T04:14:27.347Z,100930.19
2023-03-15T04:16:57.205Z,100934.34
2023-03-15T04:19:27.206Z,100929.78
2023-03-15T04:21:58.298Z,100929.09
2023-03-15T04:24:54.022Z,100928.38
2023-03-15T04:27:59.580Z,100925.66
2023-03-15T04:30:50.639Z,100925.78
2023-03-15T04:33:39.151Z,100916.16
2023-03-15T04:36:09.205Z,100915.59
2023-03-15T04:39:04.709Z,100920.81
2023-03-15T04:41:50.877Z,100916.91
2023-03-15T04:44:29.988Z,100913.47
2023-03-15T04:47:19.961Z,100923.06
2023-03-15T04:50:11.317Z,100914.59
2023-03-15T04:53:01.377Z,100908.22
2023-03-15T04:55:46.550Z,100899.47
2023-03-15T04:58:26.552Z,100901.81
2023-03-15T05:01:32.316Z,100896.53
2023-03-15T05:04:20.327Z,100893.31
2023-03-15T05:07:10.631Z,100893.94
2023-03-15T05:09:55.661Z,100896.06
2023-03-15T05:12:39.980Z,100891.28
2023-03-15T05:15:25.205Z,100899.31
2023-03-15T05:17:58.299Z,100897.13
2023-03-15T05:21:02.338Z,100900.50
2023-03-15T05:23:40.820Z,100897.47
2023-03-15T05:26:36.162Z,100898.00
2023-03-15T05:29:39.584Z,100903.91
2023-03-15T05:32:40.714Z,100898.31
2023-03-15T05:35:36.716Z,100899.41
2023-03-15T05:38:27.940Z,100893.88
2023-03-15T05:41:07.976Z,100891.22
2023-03-15T05:44:03.603Z,100893.34
2023-03-15T05:46:56.939Z,100890.56
2023-03-15T05:49:51.804Z,100898.91
2023-03-15T05:52:41.121Z,100888.94
2023-03-15T05:55:34.049Z,100890.97
2023-03-15T05:58:22.438Z,100889.00
2023-03-15T06:01:10.430Z,100890.38
2023-03-15T06:04:06.900Z,100894.38
2023-03-15T06:06:37.894Z,100875.63
2023-03-15T06:09:10.611Z,100870.97
2023-03-15T06:11:41.127Z,100873.16
2023-03-15T06:14:14.880Z,100871.13
2023-03-15T06:16:51.841Z,100869.34
2023-03-15T06:19:23.138Z,100869.81
2023-03-15T06:21:55.760Z,100867.47
2023-03-15T06:24:32.563Z,100859.69
2023-03-15T06:27:03.210Z,100856.78
2023-03-15T06:29:33.756Z,100855.88
2023-03-15T06:32:05.308Z,100856.25
2023-03-15T06:34:37.714Z,100850.69
2023-03-15T06:37:07.597Z,100863.19
2023-03-15T06:39:38.418Z,100861.13
2023-03-15T06:42:09.559Z,100863.19
2023-03-15T06:44:42.773Z,100866.78
2023-03-15T06:47:14.899Z,100861.31
2023-03-15T06:49:44.709Z,100859.47
2023-03-15T06:52:15.247Z,100850.66
2023-03-15T06:54:45.683Z,100849.25
2023-03-15T06:57:15.511Z,100858.22
2023-03-15T06:59:45.751Z,100847.91
2023-03-15T07:02:17.647Z,100858.84
2023-03-15T07:04:48.019Z,100842.59
2023-03-15T07:07:18.002Z,100844.69
2023-03-15T07:09:48.294Z,100848.53
2023-03-15T07:12:18.075Z,100842.34
2023-03-15T07:14:48.240Z,100843.66
2023-03-15T07:17:18.522Z,100842.09
2023-03-15T07:19:56.294Z,100853.84
2023-03-15T07:22:27.781Z,100854.91
2023-03-15T07:24:57.939Z,100851.75
2023-03-15T07:27:28.105Z,100848.34
2023-03-15T07:29:58.381Z,100855.34
2023-03-15T07:32:28.364Z,100847.16
2023-03-15T07:35:01.672Z,100840.16
2023-03-15T07:37:31.760Z,100846.13
2023-03-15T07:40:10.780Z,100844.84
2023-03-15T07:42:41.819Z,100847.53
2023-03-15T07:45:12.604Z,100844.69
2023-03-15T07:47:42.475Z,100840.69
2023-03-15T07:50:16.461Z,100847.06
2023-03-15T07:52:46.830Z,100849.59
2023-03-15T07:55:16.507Z,100856.00
2023-03-15T07:57:49.504Z,100852.91
2023-03-15T08:00:20.436Z,100845.59
2023-03-15T08:02:51.020Z,100855.47
2023-03-15T08:05:20.955Z,100856.53
2023-03-15T08:07:51.068Z,100861.22
2023-03-15T08:10:21.312Z,100861.63
2023-03-15T08:12:53.711Z,100859.31
2023-03-15T08:15:24.080Z,100866.50
2023-03-15T08:17:53.992Z,100866.28
2023-03-15T08:20:23.726Z,100859.34
2023-03-15T08:22:53.941Z,100858.44
2023-03-15T08:25:25.856Z,100861.44
2023-03-15T08:27:56.215Z,100861.97
2023-03-15T08:30:26.248Z,100864.72
2023-03-15T08:32:56.510Z,100861.50
2023-03-15T08:35:26.455Z,100875.09
2023-03-15T08:37:56.800Z,100880.88
2023-03-15T08:40:26.977Z,100885.56
2023-03-15T08:42:58.594Z,100873.91
2023-03-15T08:45:29.006Z,100874.56
2023-03-15T08:48:00.309Z,100875.34
2023-03-15T08:50:34.497Z,100879.22
2023-03-15T08:53:05.125Z,100886.25
2023-03-15T08:55:35.180Z,100890.44
2023-03-15T08:58:06.272Z,100894.22
2023-03-15T09:00:36.110Z,100895.56
2023-03-15T09:03:06.040Z,100893.38
2023-03-15T09:05:36.220Z,100894.69
2023-03-15T09:08:06.621Z,100901.28
2023-03-15T09:10:36.918Z,100904.28
2023-03-15T09:13:06.607Z,100905.09
2023-03-15T09:15:36.447Z,100910.94
2023-03-15T09:18:06.811Z,100901.69
2023-03-15T09:20:36.701Z,100914.25
2023-03-15T09:23:07.098Z,100915.91
2023-03-15T09:25:38.223Z,100918.25
2023-03-15T09:28:11.039Z,100915.19
2023-03-15T09:30:40.978Z,100920.09
2023-03-15T09:33:11.540Z,100925.81
2023-03-15T09:35:41.720Z,100925.66
2023-03-15T09:38:12.886Z,100926.63
2023-03-15T09:40:48.355Z,100926.19
2023-03-15T09:43:36.621Z,100929.84
2023-03-15T09:46:13.275Z,100926.84
2023-03-15T09:48:55.974Z,100918.25
2023-03-15T09:51:43.300Z,100919.50
2023-03-15T09:54:19.337Z,100925.91
2023-03-15T09:56:59.209Z,100936.75
2023-03-15T09:59:37.173Z,100935.00
2023-03-15T10:02:25.909Z,100937.88
2023-03-15T10:05:10.530Z,100934.25
2023-03-15T10:07:40.389Z,100940.69
2023-03-15T10:10:29.610Z,100941.38
2023-03-15T10:13:21.018Z,100948.97
2023-03-15T10:16:08.380Z,100942.66
2023-03-15T10:19:04.183Z,100942.00
2023-03-15T10:22:02.175Z,100952.63
2023-03-15T10:25:13.007Z,100960.19
2023-03-15T10:28:02.621Z,100964.88
2023-03-15T10:30:35.921Z,100966.31
2023-03-15T10:33:10.317Z,100974.75
2023-03-15T10:35:40.644Z,100977.53
2023-03-15T10:38:23.545Z,100978.13
2023-03-15T10:40:59.520Z,100967.84
2023-03-15T10:43:40.849Z,100969.66
2023-03-15T10:46:23.038Z,100982.03
2023-03-15T10:49:11.436Z,100977.09
2023-03-15T10:51:49.426Z,100980.63
2023-03-15T10:54:23.212Z,100985.03
2023-03-15T10:57:14.362Z,100980.50
2023-03-15T11:00:01.311Z,100986.88
2023-03-15T11:02:31.130Z,100981.19
2023-03-15T11:05:06.042Z,100989.81
2023-03-15T11:07:38.873Z,100984.91
2023-03-15T11:10:09.469Z,100991.00
2023-03-15T11:12:39.548Z,100992.13
2023-03-15T11:15:15.854Z,100979.81
2023-03-15T11:17:51.288Z,100989.63
2023-03-15T11:20:21.459Z,100988.72
2023-03-15T11:22:53.486Z,101005.16
2023-03-15T11:25:25.246Z,100989.94
2023-03-15T11:27:55.079Z,100998.06
2023-03-15T11:30:32.493Z,101005.50
2023-03-15T11:33:09.424Z,101006.06
2023-03-15T11:35:51.025Z,101008.94
2023-03-15T11:38:34.505Z,100999.28
2023-03-15T11:41:20.660Z,100993.84
2023-03-15T11:44:03.802Z,100989.66
2023-03-15T11:47:05.208Z,100997.00
2023-03-15T11:49:51.946Z,100992.00
2023-03-15T11:52:29.888Z,100999.75
2023-03-15T11:55:07.821Z,100993.78
2023-03-15T11:57:39.316Z,100995.38
2023-03-15T12:00:36.831Z,100994.72
2023-03-15T12:03:31.310Z,101004.66
2023-03-15T12:06:19.024Z,101007.53
2023-03-15T12:08:52.563Z,101004.25
2023-03-15T12:11:22.781Z,101003.03
2023-03-15T12:13:58.714Z,100995.94
2023-03-15T12:16:37.047Z,100989.59
2023-03-15T12:19:20.236Z,101002.78
2023-03-15T12:21:57.260Z,100989.03
2023-03-15T12:24:33.069Z,100999.78
2023-03-15T12:27:16.150Z,101003.19
2023-03-15T12:29:52.078Z,100990.88
2023-03-15T12:32:22.526Z,100991.56
2023-03-15T12:34:53.994Z,100994.16
2023-03-15T12:37:40.498Z,100990.78
2023-03-15T12:40:25.655Z,100997.44
2023-03-15T12:42:58.462Z,100990.91
2023-03-15T12:45:46.696Z,100985.06
2023-03-15T12:48:23.132Z,100981.44
2023-03-15T12:50:56.828Z,100988.88
2023-03-15T12:53:38.274Z,100980.03
2023-03-15T12:56:35.559Z,100974.69
2023-03-15T12:59:16.600Z,100969.94
2023-03-15T13:01:47.391Z,100971.66
2023-03-15T13:04:17.680Z,100975.16
2023-03-15T13:06:59.387Z,100967.81
2023-03-15T13:10:16.847Z,100966.22
2023-03-15T13:13:23.044Z,100966.66
2023-03-15T13:16:03.275Z,100973.00
2023-03-15T13:18:37.981Z,100971.75
2023-03-15T13:21:29.906Z,100970.34
2023-03-15T13:24:01.949Z,100965.56
2023-03-15T13:26:40.781Z,100959.78
2023-03-15T13:29:16.151Z,100954.28
2023-03-15T13:31:47.853Z,100955.31
2023-03-15T13:34:20.780Z,100940.97
2023-03-15T13:36:57.450Z,100952.72
2023-03-15T13:39:35.692Z,100951.19
2023-03-15T13:42:17.963Z,100951.84
2023-03-15T13:44:47.789Z,100946.50
2023-03-15T13:47:24.776Z,100940.97
2023-03-15T13:49:54.977Z,100945.81
2023-03-15T13:52:25.486Z,100948.53
2023-03-15T13:54:55.734Z,100947.19
2023-03-15T13:57:26.015Z,100949.25
2023-03-15T14:00:01.687Z,100942.66
2023-03-15T14:02:55.217Z,100937.28
2023-03-15T14:05:30.172Z,100940.81
2023-03-15T14:08:04.515Z,100936.75
2023-03-15T14:10:39.802Z,100934.00
2023-03-15T14:13:22.317Z,100928.56
2023-03-15T14:15:57.402Z,100936.72
2023-03-15T14:18:34.689Z,100933.84
2023-03-15T14:21:16.347Z,100930.38
2023-03-15T14:23:58.627Z,100922.22
2023-03-15T14:26:32.417Z,100924.19
2023-03-15T14:29:13.156Z,100928.53
2023-03-15T14:31:50.646Z,100929.16
2023-03-15T14:34:34.673Z,100914.72
2023-03-15T14:37:11.373Z,100911.22
2023-03-15T14:39:44.144Z,100909.91
2023-03-15T14:42:14.068Z,100903.63
2023-03-15T14:44:43.727Z,100908.38
2023-03-15T14:47:17.736Z,100908.94
2023-03-15T14:49:48.052Z,100896.19
2023-03-15T14:52:18.328Z,100896.66
2023-03-15T14:54:52.105Z,100895.94
2023-03-15T14:57:23.595Z,100891.06
2023-03-15T14:59:53.939Z,100885.44
2023-03-15T15:02:24.241Z,100892.09
2023-03-15T15:04:54.932Z,100874.41
2023-03-15T15:07:25.557Z,100877.34
2023-03-15T15:09:55.311Z,100880.84
2023-03-15T15:12:25.592Z,100869.81
2023-03-15T15:14:55.308Z,100872.91
2023-03-15T15:17:25.087Z,100868.91
2023-03-15T15:19:54.653Z,100853.25
2023-03-15T15:22:24.860Z,100856.00
2023-03-15T15:24:54.646Z,100856.59
2023-03-15T15:27:24.452Z,100853.03
2023-03-15T15:29:55.128Z,100847.69
2023-03-15T15:32:25.026Z,100847.03
2023-03-15T15:34:56.028Z,100845.59
2023-03-15T15:37:25.874Z,100845.63
2023-03-15T15:39:56.191Z,100847.69
2023-03-15T15:42:25.824Z,100844.84
2023-03-15T15:44:55.603Z,100840.72
2023-03-15T15:47:25.909Z,100834.56
2023-03-15T15:49:55.688Z,100832.38
2023-03-15T15:52:25.969Z,100822.75
2023-03-15T15:54:55.937Z,100814.53
2023-03-15T15:57:27.738Z,100812.94
2023-03-15T15:59:57.128Z,100815.84
2023-03-15T16:02:27.378Z,100806.75
2023-03-15T16:04:57.174Z,100808.63
2023-03-15T16:07:27.558Z,100793.25
2023-03-15T16:09:59.692Z,100803.47
2023-03-15T16:12:30.194Z,100797.13
2023-03-15T16:15:00.329Z,100801.84
2023-03-15T16:17:31.348Z,100795.53
2023-03-15T16:20:01.173Z,100796.53
2023-03-15T16:22:30.958Z,100790.81
2023-03-15T16:25:02.684Z,100781.88
2023-03-15T16:27:32.685Z,100772.44
2023-03-15T16:30:05.670Z,100769.78
2023-03-15T16:32:43.823Z,100773.19
2023-03-15T16:35:18.174Z,100768.25
2023-03-15T16:37:48.233Z,100758.66
2023-03-15T16:40:30.567Z,100754.34
2023-03-15T16:43:00.954Z,100758.38
2023-03-15T16:45:31.267Z,100747.31
2023-03-15T16:48:01.088Z,100740.47
2023-03-15T16:50:32.226Z,100739.31
2023-03-15T16:53:05.800Z,100736.59
2023-03-15T16:55:36.405Z,100741.16
2023-03-15T16:58:20.151Z,100735.69
2023-03-15T17:00:50.512Z,100726.88
2023-03-15T17:03:20.468Z,100722.53
2023-03-15T17:05:50.819Z,100715.84
2023-03-15T17:08:22.757Z,100724.91
2023-03-15T17:10:53.143Z,100713.81
2023-03-15T17:13:29.333Z,100722.97
2023-03-15T17:15:59.538Z,100712.94
2023-03-15T17:18:31.196Z,100708.53
2023-03-15T17:21:01.508Z,100710.88
2023-03-15T17:23:32.195Z,100697.44
2023-03-15T17:26:02.365Z,100690.97
2023-03-15T17:28:32.172Z,100690.91
2023-03-15T17:31:20.441Z,100680.66
2023-03-15T17:33:52.672Z,100674.19
2023-03-15T17:36:25.000Z,100679.69
2023-03-15T17:38:56.115Z,100669.88
2023-03-15T17:41:31.953Z,100668.19
2023-03-15T17:44:02.564Z,100661.88
2023-03-15T17:46:34.151Z,100661.25
2023-03-15T17:49:07.522Z,100664.25
2023-03-15T17:51:38.776Z,100662.09
2023-03-15T17:54:18.081Z,100657.63
2023-03-15T17:56:47.929Z,100643.47
2023-03-15T17:59:19.416Z,100643.38
2023-03-15T18:01:49.971Z,100645.69
2023-03-15T18:04:22.357Z,100641.53
2023-03-15T18:06:54.239Z,100635.19
2023-03-15T18:09:27.611Z,100633.81
2023-03-15T18:11:57.412Z,100633.91
2023-03-15T18:14:27.741Z,100625.06
2023-03-15T18:16:57.454Z,100617.16
2023-03-15T18:19:28.286Z,100619.53
2023-03-15T18:21:58.027Z,100609.88
2023-03-15T18:24:28.297Z,100609.75
2023-03-15T18:26:58.066Z,100598.09
2023-03-15T18:29:28.343Z,100612.03
2023-03-15T18:31:58.232Z,100604.81
2023-03-15T18:34:28.562Z,100595.66
2023-03-15T18:36:58.234Z,100601.66
2023-03-15T18:39:28.213Z,100599.25
2023-03-15T18:41:58.377Z,100594.91
2023-03-15T18:44:28.246Z,100598.31
2023-03-15T18:46:58.447Z,100594.72
2023-03-15T18:49:28.290Z,100586.22
2023-03-15T18:51:58.806Z,100584.63
2023-03-15T18:54:28.667Z,100588.31
2023-03-15T18:56:58.877Z,100591.09
2023-03-15T18:59:28.751Z,100597.94
2023-03-15T19:01:59.018Z,100587.50
2023-03-15T19:04:28.903Z,100575.34
2023-03-15T19:06:59.115Z,100575.63
2023-03-15T19:09:29.001Z,100572.00
2023-03-15T19:11:59.174Z,100569.13
2023-03-15T19:14:29.385Z,100564.56
2023-03-15T19:17:00.838Z,100560.72
2023-03-15T19:19:30.771Z,100565.50
2023-03-15T19:22:00.443Z,100560.91
2023-03-15T19:24:33.045Z,100562.94
2023-03-15T19:27:02.459Z,100566.13
2023-03-15T19:29:31.993Z,100565.34
2023-03-15T19:32:02.335Z,100559.41
2023-03-15T19:34:32.833Z,100553.59
2023-03-15T19:37:03.234Z,100551.34
2023-03-15T19:39:33.005Z,100542.38
2023-03-15T19:42:02.638Z,100547.75
2023-03-15T19:44:33.462Z,100553.50
2023-03-15T19:47:03.586Z,100546.75
2023-03-15T19:49:33.776Z,100551.16
2023-03-15T19:52:04.069Z,100550.81
2023-03-15T19:54:35.176Z,100542.34
2023-03-15T19:57:04.992Z,100542.00
2023-03-15T19:59:40.777Z,100540.19
2023-03-15T20:02:15.270Z,100534.94
2023-03-15T20:04:45.094Z,100537.53
2023-03-15T20:07:14.766Z,100540.19
2023-03-15T20:09:45.045Z,100536.03
2023-03-15T20:12:15.062Z,100531.50
2023-03-15T20:14:45.316Z,100541.06
2023-03-15T20:17:16.324Z,100532.97
2023-03-15T20:19:46.519Z,100538.28
2023-03-15T20:22:16.343Z,100531.38
2023-03-15T20:24:46.688Z,100534.75
2023-03-15T20:27:16.584Z,100537.94
2023-03-15T20:29:46.794Z,100528.94
2023-03-15T20:32:17.034Z,100531.06
2023-03-15T20:34:47.533Z,100528.84
2023-03-15T20:37:17.337Z,100534.97
2023-03-15T20:39:48.151Z,100526.72
2023-03-15T20:42:18.004Z,100526.19
2023-03-15T20:44:47.632Z,100516.66
2023-03-15T20:47:18.510Z,100511.50
2023-03-15T20:49:48.440Z,100516.56
2023-03-15T20:52:18.614Z,100518.75
2023-03-15T20:54:48.365Z,100516.81
2023-03-15T20:57:18.135Z,100527.38
2023-03-15T20:59:48.136Z,100528.34
2023-03-15T21:02:19.158Z,100527.88
2023-03-15T21:04:48.975Z,100526.19
2023-03-15T21:07:19.043Z,100533.88
2023-03-15T21:09:50.425Z,100528.47
2023-03-15T21:12:21.206Z,100532.22
2023-03-15T21:14:51.385Z,100541.78
2023-03-15T21:17:21.327Z,100540.56
2023-03-15T21:19:50.919Z,100546.41
2023-03-15T21:22:22.209Z,100548.19
2023-03-15T21:24:55.882Z,100548.31
2023-03-15T21:27:27.320Z,100548.78
2023-03-15T21:29:57.287Z,100565.25
2023-03-15T21:32:27.528Z,100558.72
2023-03-15T21:34:57.745Z,100558.69
2023-03-15T21:37:27.555Z,100556.22
2023-03-15T21:39:57.965Z,100567.72
2023-03-15T21:42:30.538Z,100575.72
2023-03-15T21:45:00.759Z,100575.44
2023-03-15T21:47:30.635Z,100571.38
2023-03-15T21:50:01.592Z,100580.34
2023-03-15T21:52:31.406Z,100592.22
2023-03-15T21:55:02.236Z,100583.06
2023-03-15T21:57:34.965Z,100593.41
2023-03-15T22:00:06.534Z,100597.28
2023-03-15T22:02:41.340Z,100599.06
2023-03-15T22:05:13.319Z,100601.75
2023-03-15T22:07:44.049Z,100612.47
2023-03-15T22:10:15.455Z,100610.91
2023-03-15T22:12:45.352Z,100615.25
2023-03-15T22:15:14.966Z,100619.94
2023-03-15T22:17:46.371Z,100621.66
2023-03-15T22:20:19.692Z,100625.09
2023-03-15T22:22:50.410Z,100624.16
2023-03-15T22:25:20.262Z,100637.81
2023-03-15T22:27:49.841Z,100635.78
2023-03-15T22:30:20.200Z,100644.41
2023-03-15T22:32:50.215Z,100644.88
2023-03-15T22:35:21.119Z,100653.69
2023-03-15T22:37:51.109Z,100655.22
2023-03-15T22:40:22.006Z,100661.19
2023-03-15T22:42:53.828Z,100658.16
2023-03-15T22:45:24.148Z,100663.75
2023-03-15T22:47:54.059Z,100675.50
2023-03-15T22:50:24.617Z,100675.28
2023-03-15T22:52:56.521Z,100686.16
2023-03-15T22:55:26.953Z,100691.72
2023-03-15T22:57:56.705Z,100697.22
2023-03-15T23:00:27.488Z,100705.91
2023-03-15T23:02:57.612Z,100716.13
2023-03-15T23:05:27.406Z,100714.03
2023-03-15T23:07:57.632Z,100721.88
2023-03-15T23:10:27.664Z,100724.94
2023-03-15T23:12:58.033Z,100734.06
2023-03-15T23:15:28.050Z,100740.75
2023-03-15T23:17:58.581Z,100751.41
2023-03-15T23:20:28.708Z,100745.09
2023-03-15T23:22:59.567Z,100758.75
2023-03-15T23:25:32.089Z,100768.72
2023-03-15T23:28:02.267Z,100777.09
2023-03-15T23:30:35.768Z,100776.72
2023-03-15T23:33:06.607Z,100793.63
2023-03-15T23:35:36.445Z,100798.19
2023-03-15T23:38:06.676Z,100796.16
2023-03-15T23:40:36.842Z,100797.00
2023-03-15T23:43:10.365Z,100797.25
2023-03-15T23:45:40.787Z,100806.41
2023-03-15T23:48:11.598Z,100803.38
2023-03-15T23:50:45.430Z,100809.47
2023-03-15T23:53:15.681Z,100809.47
2023-03-15T23:55:45.332Z,100806.91
2023-03-15T23:58:16.013Z,100806.91
